sensor_id;sensor_type;location;lat;lon;timestamp;P1;durP1;ratioP1;P2;durP2;ratioP2
32295;SDS011;18781;51.550;5.418;2023-04-06T00:00:36;29.42;;;16.05;;
32295;SDS011;18781;51.550;5.418;2023-04-06T00:03:02;25.88;;;15.05;;
32295;SDS011;18781;51.550;5.418;2023-04-06T00:05:27;25.42;;;15.25;;
32295;SDS011;18781;51.550;5.418;2023-04-06T00:07:55;29.70;;;15.35;;
32295;SDS011;18781;51.550;5.418;2023-04-06T00:10:22;28.15;;;15.60;;
32295;SDS011;18781;51.550;5.418;2023-04-06T00:12:47;32.10;;;15.68;;
32295;SDS011;18781;51.550;5.418;2023-04-06T00:15:13;29.35;;;16.02;;
32295;SDS011;18781;51.550;5.418;2023-04-06T00:17:39;31.73;;;16.30;;
32295;SDS011;18781;51.550;5.418;2023-04-06T00:20:05;31.95;;;16.35;;
32295;SDS011;18781;51.550;5.418;2023-04-06T00:22:31;29.92;;;15.85;;
32295;SDS011;18781;51.550;5.418;2023-04-06T00:24:57;28.67;;;15.02;;
32295;SDS011;18781;51.550;5.418;2023-04-06T00:27:23;28.13;;;14.85;;
32295;SDS011;18781;51.550;5.418;2023-04-06T00:29:49;28.50;;;15.20;;
32295;SDS011;18781;51.550;5.418;2023-04-06T00:32:15;29.23;;;15.48;;
32295;SDS011;18781;51.550;5.418;2023-04-06T00:34:41;29.13;;;15.95;;
32295;SDS011;18781;51.550;5.418;2023-04-06T00:37:06;26.02;;;14.52;;
32295;SDS011;18781;51.550;5.418;2023-04-06T00:39:32;35.08;;;15.23;;
32295;SDS011;18781;51.550;5.418;2023-04-06T00:41:57;30.63;;;15.32;;
32295;SDS011;18781;51.550;5.418;2023-04-06T00:44:23;23.52;;;13.88;;
32295;SDS011;18781;51.550;5.418;2023-04-06T00:46:49;24.27;;;14.25;;
32295;SDS011;18781;51.550;5.418;2023-04-06T00:49:15;24.77;;;13.95;;
32295;SDS011;18781;51.550;5.418;2023-04-06T00:51:41;27.30;;;14.10;;
32295;SDS011;18781;51.550;5.418;2023-04-06T00:54:06;26.70;;;14.73;;
32295;SDS011;18781;51.550;5.418;2023-04-06T00:56:32;26.83;;;14.50;;
32295;SDS011;18781;51.550;5.418;2023-04-06T00:58:57;27.35;;;14.05;;
32295;SDS011;18781;51.550;5.418;2023-04-06T01:01:23;29.83;;;14.13;;
32295;SDS011;18781;51.550;5.418;2023-04-06T01:03:50;27.45;;;14.07;;
32295;SDS011;18781;51.550;5.418;2023-04-06T01:06:16;27.00;;;13.57;;
32295;SDS011;18781;51.550;5.418;2023-04-06T01:08:42;29.02;;;14.13;;
32295;SDS011;18781;51.550;5.418;2023-04-06T01:11:07;26.63;;;13.90;;
32295;SDS011;18781;51.550;5.418;2023-04-06T01:13:33;28.13;;;14.30;;
32295;SDS011;18781;51.550;5.418;2023-04-06T01:15:58;23.98;;;13.65;;
32295;SDS011;18781;51.550;5.418;2023-04-06T01:18:27;23.08;;;13.40;;
32295;SDS011;18781;51.550;5.418;2023-04-06T01:23:19;26.27;;;14.15;;
32295;SDS011;18781;51.550;5.418;2023-04-06T01:25:45;25.13;;;13.45;;
32295;SDS011;18781;51.550;5.418;2023-04-06T01:28:10;27.63;;;13.82;;
32295;SDS011;18781;51.550;5.418;2023-04-06T01:30:36;24.42;;;14.27;;
32295;SDS011;18781;51.550;5.418;2023-04-06T01:33:02;23.67;;;13.80;;
32295;SDS011;18781;51.550;5.418;2023-04-06T01:35:27;22.45;;;13.27;;
32295;SDS011;18781;51.550;5.418;2023-04-06T01:37:55;26.60;;;14.50;;
32295;SDS011;18781;51.550;5.418;2023-04-06T01:40:21;28.00;;;14.43;;
32295;SDS011;18781;51.550;5.418;2023-04-06T01:42:47;29.23;;;15.15;;
32295;SDS011;18781;51.550;5.418;2023-04-06T01:45:12;28.08;;;15.48;;
32295;SDS011;18781;51.550;5.418;2023-04-06T01:47:38;24.67;;;14.55;;
32295;SDS011;18781;51.550;5.418;2023-04-06T01:50:03;26.05;;;14.77;;
32295;SDS011;18781;51.550;5.418;2023-04-06T01:52:31;29.52;;;15.55;;
32295;SDS011;18781;51.550;5.418;2023-04-06T01:54:57;26.85;;;15.32;;
32295;SDS011;18781;51.550;5.418;2023-04-06T01:57:23;27.63;;;15.38;;
32295;SDS011;18781;51.550;5.418;2023-04-06T01:59:50;25.80;;;14.55;;
32295;SDS011;18781;51.550;5.418;2023-04-06T02:02:16;27.33;;;14.90;;
32295;SDS011;18781;51.550;5.418;2023-04-06T02:04:41;30.33;;;15.20;;
32295;SDS011;18781;51.550;5.418;2023-04-06T02:07:07;26.17;;;15.00;;
32295;SDS011;18781;51.550;5.418;2023-04-06T02:09:32;30.17;;;16.00;;
32295;SDS011;18781;51.550;5.418;2023-04-06T02:11:58;24.70;;;14.93;;
32295;SDS011;18781;51.550;5.418;2023-04-06T02:14:24;27.73;;;16.13;;
32295;SDS011;18781;51.550;5.418;2023-04-06T02:16:50;31.33;;;15.25;;
32295;SDS011;18781;51.550;5.418;2023-04-06T02:19:16;25.95;;;16.10;;
32295;SDS011;18781;51.550;5.418;2023-04-06T02:21:42;34.08;;;15.90;;
32295;SDS011;18781;51.550;5.418;2023-04-06T02:24:07;27.90;;;15.77;;
32295;SDS011;18781;51.550;5.418;2023-04-06T02:26:33;30.33;;;16.15;;
32295;SDS011;18781;51.550;5.418;2023-04-06T02:28:58;31.40;;;15.82;;
32295;SDS011;18781;51.550;5.418;2023-04-06T02:31:24;29.70;;;15.90;;
32295;SDS011;18781;51.550;5.418;2023-04-06T02:33:50;29.27;;;16.35;;
32295;SDS011;18781;51.550;5.418;2023-04-06T02:36:15;28.67;;;15.88;;
32295;SDS011;18781;51.550;5.418;2023-04-06T02:38:41;31.15;;;16.63;;
32295;SDS011;18781;51.550;5.418;2023-04-06T02:41:07;31.38;;;16.25;;
32295;SDS011;18781;51.550;5.418;2023-04-06T02:43:32;31.50;;;16.10;;
32295;SDS011;18781;51.550;5.418;2023-04-06T02:45:58;29.63;;;16.83;;
32295;SDS011;18781;51.550;5.418;2023-04-06T02:48:23;36.33;;;17.75;;
32295;SDS011;18781;51.550;5.418;2023-04-06T02:50:49;36.03;;;16.73;;
32295;SDS011;18781;51.550;5.418;2023-04-06T02:53:15;39.45;;;17.33;;
32295;SDS011;18781;51.550;5.418;2023-04-06T02:55:40;29.88;;;16.85;;
32295;SDS011;18781;51.550;5.418;2023-04-06T02:58:06;29.60;;;16.75;;
32295;SDS011;18781;51.550;5.418;2023-04-06T03:00:32;30.83;;;16.92;;
32295;SDS011;18781;51.550;5.418;2023-04-06T03:02:57;30.48;;;17.33;;
32295;SDS011;18781;51.550;5.418;2023-04-06T03:05:23;31.63;;;16.77;;
32295;SDS011;18781;51.550;5.418;2023-04-06T03:07:48;31.17;;;17.88;;
32295;SDS011;18781;51.550;5.418;2023-04-06T03:10:14;31.40;;;18.52;;
32295;SDS011;18781;51.550;5.418;2023-04-06T03:12:40;29.55;;;18.08;;
32295;SDS011;18781;51.550;5.418;2023-04-06T03:15:06;29.58;;;18.48;;
32295;SDS011;18781;51.550;5.418;2023-04-06T03:17:32;32.10;;;16.90;;
32295;SDS011;18781;51.550;5.418;2023-04-06T03:19:58;33.45;;;18.25;;
32295;SDS011;18781;51.550;5.418;2023-04-06T03:22:24;31.55;;;17.63;;
32295;SDS011;18781;51.550;5.418;2023-04-06T03:24:49;32.78;;;18.08;;
32295;SDS011;18781;51.550;5.418;2023-04-06T03:27:15;32.10;;;17.80;;
32295;SDS011;18781;51.550;5.418;2023-04-06T03:29:40;35.58;;;17.23;;
32295;SDS011;18781;51.550;5.418;2023-04-06T03:32:06;40.08;;;18.13;;
32295;SDS011;18781;51.550;5.418;2023-04-06T03:34:32;30.92;;;18.30;;
32295;SDS011;18781;51.550;5.418;2023-04-06T03:36:57;34.47;;;17.55;;
32295;SDS011;18781;51.550;5.418;2023-04-06T03:39:23;32.17;;;17.50;;
32295;SDS011;18781;51.550;5.418;2023-04-06T03:41:48;37.85;;;18.58;;
32295;SDS011;18781;51.550;5.418;2023-04-06T03:44:14;33.95;;;18.63;;
32295;SDS011;18781;51.550;5.418;2023-04-06T03:46:39;35.00;;;19.45;;
32295;SDS011;18781;51.550;5.418;2023-04-06T03:49:05;33.72;;;18.38;;
32295;SDS011;18781;51.550;5.418;2023-04-06T03:51:31;33.58;;;18.02;;
32295;SDS011;18781;51.550;5.418;2023-04-06T03:53:56;35.63;;;18.08;;
32295;SDS011;18781;51.550;5.418;2023-04-06T03:56:22;34.75;;;19.20;;
32295;SDS011;18781;51.550;5.418;2023-04-06T03:58:47;35.75;;;19.52;;
32295;SDS011;18781;51.550;5.418;2023-04-06T04:01:18;35.27;;;18.70;;
32295;SDS011;18781;51.550;5.418;2023-04-06T04:03:44;35.38;;;18.77;;
32295;SDS011;18781;51.550;5.418;2023-04-06T04:06:10;31.88;;;17.98;;
32295;SDS011;18781;51.550;5.418;2023-04-06T04:08:35;37.15;;;19.27;;
32295;SDS011;18781;51.550;5.418;2023-04-06T04:11:01;37.70;;;19.75;;
32295;SDS011;18781;51.550;5.418;2023-04-06T04:13:27;38.38;;;20.58;;
32295;SDS011;18781;51.550;5.418;2023-04-06T04:15:52;36.38;;;20.80;;
32295;SDS011;18781;51.550;5.418;2023-04-06T04:18:18;35.83;;;21.30;;
32295;SDS011;18781;51.550;5.418;2023-04-06T04:20:44;36.90;;;21.65;;
32295;SDS011;18781;51.550;5.418;2023-04-06T04:23:10;36.70;;;20.45;;
32295;SDS011;18781;51.550;5.418;2023-04-06T04:25:36;34.00;;;18.65;;
32295;SDS011;18781;51.550;5.418;2023-04-06T04:28:02;40.17;;;20.10;;
32295;SDS011;18781;51.550;5.418;2023-04-06T04:30:27;36.75;;;19.10;;
32295;SDS011;18781;51.550;5.418;2023-04-06T04:32:53;35.15;;;19.00;;
32295;SDS011;18781;51.550;5.418;2023-04-06T04:35:19;35.35;;;19.50;;
32295;SDS011;18781;51.550;5.418;2023-04-06T04:37:45;35.38;;;20.05;;
32295;SDS011;18781;51.550;5.418;2023-04-06T04:40:11;38.30;;;18.90;;
32295;SDS011;18781;51.550;5.418;2023-04-06T04:42:37;33.58;;;18.77;;
32295;SDS011;18781;51.550;5.418;2023-04-06T04:45:02;36.47;;;18.73;;
32295;SDS011;18781;51.550;5.418;2023-04-06T04:47:28;36.60;;;19.65;;
32295;SDS011;18781;51.550;5.418;2023-04-06T04:49:54;36.10;;;19.27;;
32295;SDS011;18781;51.550;5.418;2023-04-06T04:52:19;34.08;;;18.63;;
32295;SDS011;18781;51.550;5.418;2023-04-06T04:54:45;33.60;;;19.67;;
32295;SDS011;18781;51.550;5.418;2023-04-06T04:57:12;33.33;;;18.15;;
32295;SDS011;18781;51.550;5.418;2023-04-06T04:59:37;34.13;;;18.85;;
32295;SDS011;18781;51.550;5.418;2023-04-06T05:02:03;34.58;;;19.58;;
32295;SDS011;18781;51.550;5.418;2023-04-06T05:04:29;33.50;;;20.17;;
32295;SDS011;18781;51.550;5.418;2023-04-06T05:07:07;35.67;;;19.95;;
32295;SDS011;18781;51.550;5.418;2023-04-06T05:11:59;36.45;;;19.25;;
32295;SDS011;18781;51.550;5.418;2023-04-06T05:14:25;35.78;;;19.40;;
32295;SDS011;18781;51.550;5.418;2023-04-06T05:16:51;39.58;;;20.08;;
32295;SDS011;18781;51.550;5.418;2023-04-06T05:19:17;43.63;;;20.23;;
32295;SDS011;18781;51.550;5.418;2023-04-06T05:21:43;38.80;;;20.40;;
32295;SDS011;18781;51.550;5.418;2023-04-06T05:24:09;48.55;;;20.23;;
32295;SDS011;18781;51.550;5.418;2023-04-06T05:26:35;37.35;;;20.52;;
32295;SDS011;18781;51.550;5.418;2023-04-06T05:29:00;37.40;;;18.88;;
32295;SDS011;18781;51.550;5.418;2023-04-06T05:31:26;36.05;;;20.48;;
32295;SDS011;18781;51.550;5.418;2023-04-06T05:33:52;40.95;;;19.92;;
32295;SDS011;18781;51.550;5.418;2023-04-06T05:36:17;34.28;;;18.73;;
32295;SDS011;18781;51.550;5.418;2023-04-06T05:38:43;35.92;;;20.60;;
32295;SDS011;18781;51.550;5.418;2023-04-06T05:41:09;34.45;;;20.38;;
32295;SDS011;18781;51.550;5.418;2023-04-06T05:43:35;40.75;;;20.05;;
32295;SDS011;18781;51.550;5.418;2023-04-06T05:46:01;35.72;;;18.88;;
32295;SDS011;18781;51.550;5.418;2023-04-06T05:48:27;35.30;;;19.77;;
32295;SDS011;18781;51.550;5.418;2023-04-06T05:50:52;36.17;;;18.85;;
32295;SDS011;18781;51.550;5.418;2023-04-06T05:53:18;35.75;;;19.25;;
32295;SDS011;18781;51.550;5.418;2023-04-06T05:55:45;34.63;;;19.13;;
32295;SDS011;18781;51.550;5.418;2023-04-06T05:58:11;36.85;;;18.70;;
32295;SDS011;18781;51.550;5.418;2023-04-06T06:00:37;36.38;;;20.48;;
32295;SDS011;18781;51.550;5.418;2023-04-06T06:03:03;40.53;;;21.95;;
32295;SDS011;18781;51.550;5.418;2023-04-06T06:05:29;41.28;;;20.90;;
32295;SDS011;18781;51.550;5.418;2023-04-06T06:07:55;36.22;;;19.95;;
32295;SDS011;18781;51.550;5.418;2023-04-06T06:10:20;37.90;;;20.13;;
32295;SDS011;18781;51.550;5.418;2023-04-06T06:12:46;39.42;;;19.88;;
32295;SDS011;18781;51.550;5.418;2023-04-06T06:15:12;40.38;;;19.77;;
32295;SDS011;18781;51.550;5.418;2023-04-06T06:17:37;36.55;;;20.13;;
32295;SDS011;18781;51.550;5.418;2023-04-06T06:20:04;35.65;;;19.15;;
32295;SDS011;18781;51.550;5.418;2023-04-06T06:22:33;35.75;;;19.80;;
32295;SDS011;18781;51.550;5.418;2023-04-06T06:24:59;38.60;;;20.70;;
32295;SDS011;18781;51.550;5.418;2023-04-06T06:27:25;36.78;;;19.80;;
32295;SDS011;18781;51.550;5.418;2023-04-06T06:29:51;30.77;;;17.30;;
32295;SDS011;18781;51.550;5.418;2023-04-06T06:32:17;35.72;;;18.55;;
32295;SDS011;18781;51.550;5.418;2023-04-06T06:34:43;30.08;;;18.25;;
32295;SDS011;18781;51.550;5.418;2023-04-06T06:37:09;36.70;;;19.00;;
32295;SDS011;18781;51.550;5.418;2023-04-06T06:39:34;37.72;;;18.90;;
32295;SDS011;18781;51.550;5.418;2023-04-06T06:42:00;35.67;;;18.40;;
32295;SDS011;18781;51.550;5.418;2023-04-06T06:44:26;34.15;;;17.70;;
32295;SDS011;18781;51.550;5.418;2023-04-06T06:46:52;36.35;;;18.80;;
32295;SDS011;18781;51.550;5.418;2023-04-06T06:49:18;34.95;;;19.00;;
32295;SDS011;18781;51.550;5.418;2023-04-06T06:51:44;37.35;;;18.60;;
32295;SDS011;18781;51.550;5.418;2023-04-06T06:54:11;36.83;;;18.17;;
32295;SDS011;18781;51.550;5.418;2023-04-06T06:56:37;33.10;;;18.00;;
32295;SDS011;18781;51.550;5.418;2023-04-06T06:59:03;35.95;;;19.75;;
32295;SDS011;18781;51.550;5.418;2023-04-06T07:01:31;38.75;;;19.13;;
32295;SDS011;18781;51.550;5.418;2023-04-06T07:03:57;34.97;;;18.50;;
32295;SDS011;18781;51.550;5.418;2023-04-06T07:06:23;34.75;;;18.23;;
32295;SDS011;18781;51.550;5.418;2023-04-06T07:08:49;36.45;;;18.73;;
32295;SDS011;18781;51.550;5.418;2023-04-06T07:11:14;36.33;;;19.23;;
32295;SDS011;18781;51.550;5.418;2023-04-06T07:13:40;34.67;;;19.23;;
32295;SDS011;18781;51.550;5.418;2023-04-06T07:16:07;35.30;;;18.40;;
32295;SDS011;18781;51.550;5.418;2023-04-06T07:18:32;31.27;;;18.35;;
32295;SDS011;18781;51.550;5.418;2023-04-06T07:20:58;31.38;;;17.55;;
32295;SDS011;18781;51.550;5.418;2023-04-06T07:23:23;33.65;;;18.38;;
32295;SDS011;18781;51.550;5.418;2023-04-06T07:25:49;33.33;;;18.33;;
32295;SDS011;18781;51.550;5.418;2023-04-06T07:28:17;34.47;;;17.35;;
32295;SDS011;18781;51.550;5.418;2023-04-06T07:30:43;37.67;;;19.05;;
32295;SDS011;18781;51.550;5.418;2023-04-06T07:33:08;35.28;;;17.77;;
32295;SDS011;18781;51.550;5.418;2023-04-06T07:35:34;37.15;;;19.23;;
32295;SDS011;18781;51.550;5.418;2023-04-06T07:38:01;37.15;;;18.60;;
32295;SDS011;18781;51.550;5.418;2023-04-06T07:40:27;38.65;;;17.98;;
32295;SDS011;18781;51.550;5.418;2023-04-06T07:42:53;34.28;;;18.55;;
32295;SDS011;18781;51.550;5.418;2023-04-06T07:45:18;32.95;;;18.95;;
32295;SDS011;18781;51.550;5.418;2023-04-06T07:47:45;42.08;;;18.65;;
32295;SDS011;18781;51.550;5.418;2023-04-06T07:50:10;34.15;;;18.83;;
32295;SDS011;18781;51.550;5.418;2023-04-06T07:52:37;35.45;;;18.02;;
32295;SDS011;18781;51.550;5.418;2023-04-06T07:55:03;34.28;;;18.42;;
32295;SDS011;18781;51.550;5.418;2023-04-06T07:57:29;42.72;;;18.80;;
32295;SDS011;18781;51.550;5.418;2023-04-06T07:59:54;38.15;;;18.80;;
32295;SDS011;18781;51.550;5.418;2023-04-06T08:02:20;32.60;;;18.30;;
32295;SDS011;18781;51.550;5.418;2023-04-06T08:04:46;40.75;;;18.20;;
32295;SDS011;18781;51.550;5.418;2023-04-06T08:07:12;38.47;;;19.20;;
32295;SDS011;18781;51.550;5.418;2023-04-06T08:09:37;37.25;;;18.15;;
32295;SDS011;18781;51.550;5.418;2023-04-06T08:12:03;37.63;;;18.65;;
32295;SDS011;18781;51.550;5.418;2023-04-06T08:14:29;38.58;;;19.52;;
32295;SDS011;18781;51.550;5.418;2023-04-06T08:16:54;37.22;;;19.33;;
32295;SDS011;18781;51.550;5.418;2023-04-06T08:19:20;39.60;;;19.25;;
32295;SDS011;18781;51.550;5.418;2023-04-06T08:21:46;37.35;;;18.27;;
32295;SDS011;18781;51.550;5.418;2023-04-06T08:24:12;38.53;;;18.73;;
32295;SDS011;18781;51.550;5.418;2023-04-06T08:26:38;36.53;;;18.70;;
32295;SDS011;18781;51.550;5.418;2023-04-06T08:29:04;36.78;;;19.70;;
32295;SDS011;18781;51.550;5.418;2023-04-06T08:31:32;32.10;;;18.15;;
32295;SDS011;18781;51.550;5.418;2023-04-06T08:33:58;43.75;;;19.38;;
32295;SDS011;18781;51.550;5.418;2023-04-06T08:36:24;42.67;;;19.15;;
32295;SDS011;18781;51.550;5.418;2023-04-06T08:38:50;37.63;;;20.30;;
32295;SDS011;18781;51.550;5.418;2023-04-06T08:41:16;39.08;;;19.92;;
32295;SDS011;18781;51.550;5.418;2023-04-06T08:43:49;36.55;;;19.52;;
32295;SDS011;18781;51.550;5.418;2023-04-06T08:46:20;36.95;;;20.42;;
32295;SDS011;18781;51.550;5.418;2023-04-06T08:48:46;46.05;;;19.67;;
32295;SDS011;18781;51.550;5.418;2023-04-06T08:51:14;37.40;;;18.67;;
32295;SDS011;18781;51.550;5.418;2023-04-06T08:53:40;34.17;;;18.80;;
32295;SDS011;18781;51.550;5.418;2023-04-06T08:56:06;40.65;;;19.55;;
32295;SDS011;18781;51.550;5.418;2023-04-06T08:58:35;39.97;;;19.17;;
32295;SDS011;18781;51.550;5.418;2023-04-06T09:01:02;44.97;;;18.95;;
32295;SDS011;18781;51.550;5.418;2023-04-06T09:03:33;33.63;;;18.80;;
32295;SDS011;18781;51.550;5.418;2023-04-06T09:06:02;35.83;;;19.67;;
32295;SDS011;18781;51.550;5.418;2023-04-06T09:08:29;38.25;;;19.75;;
32295;SDS011;18781;51.550;5.418;2023-04-06T09:10:55;45.90;;;22.20;;
32295;SDS011;18781;51.550;5.418;2023-04-06T09:13:20;37.72;;;20.05;;
32295;SDS011;18781;51.550;5.418;2023-04-06T09:15:46;39.70;;;20.70;;
32295;SDS011;18781;51.550;5.418;2023-04-06T09:18:11;35.97;;;19.50;;
32295;SDS011;18781;51.550;5.418;2023-04-06T09:20:37;42.45;;;21.30;;
32295;SDS011;18781;51.550;5.418;2023-04-06T09:23:03;34.33;;;19.65;;
32295;SDS011;18781;51.550;5.418;2023-04-06T09:25:28;38.90;;;20.58;;
32295;SDS011;18781;51.550;5.418;2023-04-06T09:28:03;30.70;;;18.35;;
32295;SDS011;18781;51.550;5.418;2023-04-06T09:30:29;33.55;;;19.15;;
32295;SDS011;18781;51.550;5.418;2023-04-06T09:32:56;33.60;;;18.67;;
32295;SDS011;18781;51.550;5.418;2023-04-06T09:35:23;36.63;;;20.15;;
32295;SDS011;18781;51.550;5.418;2023-04-06T09:37:49;32.55;;;18.92;;
32295;SDS011;18781;51.550;5.418;2023-04-06T09:40:16;36.17;;;19.52;;
32295;SDS011;18781;51.550;5.418;2023-04-06T09:42:47;38.40;;;18.80;;
32295;SDS011;18781;51.550;5.418;2023-04-06T09:45:13;31.88;;;17.55;;
32295;SDS011;18781;51.550;5.418;2023-04-06T09:47:40;32.85;;;17.98;;
32295;SDS011;18781;51.550;5.418;2023-04-06T09:50:09;30.27;;;17.58;;
32295;SDS011;18781;51.550;5.418;2023-04-06T09:52:40;33.65;;;18.42;;
32295;SDS011;18781;51.550;5.418;2023-04-06T09:55:30;34.15;;;17.00;;
32295;SDS011;18781;51.550;5.418;2023-04-06T09:58:18;29.25;;;17.20;;
32295;SDS011;18781;51.550;5.418;2023-04-06T10:00:54;27.60;;;16.77;;
32295;SDS011;18781;51.550;5.418;2023-04-06T10:03:36;29.50;;;15.30;;
32295;SDS011;18781;51.550;5.418;2023-04-06T10:06:13;29.60;;;15.25;;
32295;SDS011;18781;51.550;5.418;2023-04-06T10:08:40;24.77;;;14.20;;
32295;SDS011;18781;51.550;5.418;2023-04-06T10:11:10;27.92;;;14.73;;
32295;SDS011;18781;51.550;5.418;2023-04-06T10:13:36;33.22;;;15.57;;
32295;SDS011;18781;51.550;5.418;2023-04-06T10:16:02;25.67;;;13.82;;
32295;SDS011;18781;51.550;5.418;2023-04-06T10:18:28;25.65;;;13.50;;
32295;SDS011;18781;51.550;5.418;2023-04-06T10:20:56;21.08;;;12.32;;
32295;SDS011;18781;51.550;5.418;2023-04-06T10:23:34;22.05;;;12.57;;
32295;SDS011;18781;51.550;5.418;2023-04-06T10:26:04;23.48;;;12.80;;
32295;SDS011;18781;51.550;5.418;2023-04-06T10:28:31;20.42;;;12.10;;
32295;SDS011;18781;51.550;5.418;2023-04-06T10:31:00;22.30;;;12.65;;
32295;SDS011;18781;51.550;5.418;2023-04-06T10:33:26;23.40;;;13.18;;
32295;SDS011;18781;51.550;5.418;2023-04-06T10:35:53;17.80;;;10.95;;
32295;SDS011;18781;51.550;5.418;2023-04-06T10:38:20;18.50;;;11.02;;
32295;SDS011;18781;51.550;5.418;2023-04-06T10:40:47;19.42;;;11.52;;
32295;SDS011;18781;51.550;5.418;2023-04-06T10:43:14;23.27;;;12.10;;
32295;SDS011;18781;51.550;5.418;2023-04-06T10:45:44;21.60;;;11.55;;
32295;SDS011;18781;51.550;5.418;2023-04-06T10:48:17;19.73;;;11.43;;
32295;SDS011;18781;51.550;5.418;2023-04-06T10:50:44;21.05;;;11.52;;
32295;SDS011;18781;51.550;5.418;2023-04-06T10:53:19;13.45;;;7.72;;
32295;SDS011;18781;51.550;5.418;2023-04-06T10:55:54;19.80;;;10.77;;
32295;SDS011;18781;51.550;5.418;2023-04-06T10:58:24;20.30;;;10.98;;
32295;SDS011;18781;51.550;5.418;2023-04-06T11:00:50;18.67;;;10.20;;
32295;SDS011;18781;51.550;5.418;2023-04-06T11:03:16;22.90;;;10.05;;
32295;SDS011;18781;51.550;5.418;2023-04-06T11:05:43;17.77;;;9.98;;
32295;SDS011;18781;51.550;5.418;2023-04-06T11:08:25;21.35;;;9.90;;
32295;SDS011;18781;51.550;5.418;2023-04-06T11:13:17;14.50;;;8.88;;
32295;SDS011;18781;51.550;5.418;2023-04-06T11:15:43;20.10;;;9.40;;
32295;SDS011;18781;51.550;5.418;2023-04-06T11:18:08;17.27;;;9.80;;
32295;SDS011;18781;51.550;5.418;2023-04-06T11:20:36;15.43;;;8.52;;
32295;SDS011;18781;51.550;5.418;2023-04-06T11:23:01;21.65;;;10.18;;
32295;SDS011;18781;51.550;5.418;2023-04-06T11:25:28;16.02;;;10.25;;
32295;SDS011;18781;51.550;5.418;2023-04-06T11:27:56;16.35;;;10.00;;
32295;SDS011;18781;51.550;5.418;2023-04-06T11:30:22;19.13;;;9.68;;
32295;SDS011;18781;51.550;5.418;2023-04-06T11:32:48;16.73;;;9.80;;
32295;SDS011;18781;51.550;5.418;2023-04-06T11:35:23;17.50;;;9.77;;
32295;SDS011;18781;51.550;5.418;2023-04-06T11:37:51;14.65;;;9.02;;
32295;SDS011;18781;51.550;5.418;2023-04-06T11:40:21;19.53;;;11.23;;
32295;SDS011;18781;51.550;5.418;2023-04-06T11:42:54;18.33;;;10.73;;
32295;SDS011;18781;51.550;5.418;2023-04-06T11:45:22;17.20;;;9.88;;
32295;SDS011;18781;51.550;5.418;2023-04-06T11:47:58;19.13;;;10.02;;
32295;SDS011;18781;51.550;5.418;2023-04-06T11:50:25;20.27;;;9.95;;
32295;SDS011;18781;51.550;5.418;2023-04-06T11:52:58;18.00;;;10.13;;
32295;SDS011;18781;51.550;5.418;2023-04-06T11:55:25;16.55;;;10.38;;
32295;SDS011;18781;51.550;5.418;2023-04-06T11:57:51;19.13;;;11.43;;
32295;SDS011;18781;51.550;5.418;2023-04-06T12:00:17;18.15;;;10.68;;
32295;SDS011;18781;51.550;5.418;2023-04-06T12:02:46;19.20;;;10.35;;
32295;SDS011;18781;51.550;5.418;2023-04-06T12:05:13;18.83;;;10.60;;
32295;SDS011;18781;51.550;5.418;2023-04-06T12:07:39;22.75;;;11.77;;
32295;SDS011;18781;51.550;5.418;2023-04-06T12:10:04;18.27;;;11.55;;
32295;SDS011;18781;51.550;5.418;2023-04-06T12:12:30;17.67;;;11.35;;
32295;SDS011;18781;51.550;5.418;2023-04-06T12:14:56;19.13;;;11.50;;
32295;SDS011;18781;51.550;5.418;2023-04-06T12:17:22;20.85;;;11.00;;
32295;SDS011;18781;51.550;5.418;2023-04-06T12:19:48;19.83;;;11.13;;
32295;SDS011;18781;51.550;5.418;2023-04-06T12:22:14;16.42;;;10.82;;
32295;SDS011;18781;51.550;5.418;2023-04-06T12:24:40;18.92;;;11.20;;
32295;SDS011;18781;51.550;5.418;2023-04-06T12:27:06;18.92;;;11.05;;
32295;SDS011;18781;51.550;5.418;2023-04-06T12:29:31;16.75;;;10.95;;
32295;SDS011;18781;51.550;5.418;2023-04-06T12:31:57;18.77;;;10.63;;
32295;SDS011;18781;51.550;5.418;2023-04-06T12:34:23;18.45;;;11.10;;
32295;SDS011;18781;51.550;5.418;2023-04-06T12:36:48;20.20;;;10.77;;
32295;SDS011;18781;51.550;5.418;2023-04-06T12:39:14;15.63;;;9.43;;
32295;SDS011;18781;51.550;5.418;2023-04-06T12:41:40;16.55;;;10.45;;
32295;SDS011;18781;51.550;5.418;2023-04-06T12:44:06;16.20;;;10.18;;
32295;SDS011;18781;51.550;5.418;2023-04-06T12:46:31;17.00;;;10.73;;
32295;SDS011;18781;51.550;5.418;2023-04-06T12:48:57;18.77;;;10.85;;
32295;SDS011;18781;51.550;5.418;2023-04-06T12:51:24;17.02;;;10.13;;
32295;SDS011;18781;51.550;5.418;2023-04-06T12:53:52;19.10;;;9.77;;
32295;SDS011;18781;51.550;5.418;2023-04-06T12:56:18;16.85;;;9.57;;
32295;SDS011;18781;51.550;5.418;2023-04-06T12:58:44;17.23;;;10.70;;
32295;SDS011;18781;51.550;5.418;2023-04-06T13:01:10;16.45;;;9.88;;
32295;SDS011;18781;51.550;5.418;2023-04-06T13:03:37;20.90;;;10.63;;
32295;SDS011;18781;51.550;5.418;2023-04-06T13:06:03;16.77;;;10.48;;
32295;SDS011;18781;51.550;5.418;2023-04-06T13:08:29;15.05;;;10.00;;
32295;SDS011;18781;51.550;5.418;2023-04-06T13:10:55;21.27;;;10.57;;
32295;SDS011;18781;51.550;5.418;2023-04-06T13:13:24;21.98;;;10.25;;
32295;SDS011;18781;51.550;5.418;2023-04-06T13:15:51;18.40;;;9.90;;
32295;SDS011;18781;51.550;5.418;2023-04-06T13:18:17;14.30;;;9.35;;
32295;SDS011;18781;51.550;5.418;2023-04-06T13:20:43;15.15;;;9.65;;
32295;SDS011;18781;51.550;5.418;2023-04-06T13:23:09;18.40;;;10.10;;
32295;SDS011;18781;51.550;5.418;2023-04-06T13:25:35;15.45;;;9.88;;
32295;SDS011;18781;51.550;5.418;2023-04-06T13:28:01;15.07;;;9.35;;
32295;SDS011;18781;51.550;5.418;2023-04-06T13:30:26;16.15;;;10.13;;
32295;SDS011;18781;51.550;5.418;2023-04-06T13:32:52;17.40;;;10.40;;
32295;SDS011;18781;51.550;5.418;2023-04-06T13:35:18;17.77;;;9.43;;
32295;SDS011;18781;51.550;5.418;2023-04-06T13:37:43;16.92;;;10.45;;
32295;SDS011;18781;51.550;5.418;2023-04-06T13:40:09;16.48;;;9.75;;
32295;SDS011;18781;51.550;5.418;2023-04-06T13:42:35;19.00;;;10.95;;
32295;SDS011;18781;51.550;5.418;2023-04-06T13:45:03;16.58;;;10.70;;
32295;SDS011;18781;51.550;5.418;2023-04-06T13:47:29;19.65;;;10.30;;
32295;SDS011;18781;51.550;5.418;2023-04-06T13:49:54;17.75;;;9.70;;
32295;SDS011;18781;51.550;5.418;2023-04-06T13:52:20;16.38;;;10.25;;
32295;SDS011;18781;51.550;5.418;2023-04-06T13:54:46;16.98;;;10.05;;
32295;SDS011;18781;51.550;5.418;2023-04-06T13:57:12;16.90;;;10.18;;
32295;SDS011;18781;51.550;5.418;2023-04-06T13:59:38;15.98;;;10.00;;
32295;SDS011;18781;51.550;5.418;2023-04-06T14:02:04;15.20;;;10.00;;
32295;SDS011;18781;51.550;5.418;2023-04-06T14:04:33;16.95;;;10.55;;
32295;SDS011;18781;51.550;5.418;2023-04-06T14:06:59;17.60;;;9.13;;
32295;SDS011;18781;51.550;5.418;2023-04-06T14:09:26;16.38;;;9.40;;
32295;SDS011;18781;51.550;5.418;2023-04-06T14:11:52;15.13;;;9.65;;
32295;SDS011;18781;51.550;5.418;2023-04-06T14:14:18;16.83;;;9.70;;
32295;SDS011;18781;51.550;5.418;2023-04-06T14:16:44;15.30;;;9.68;;
32295;SDS011;18781;51.550;5.418;2023-04-06T14:19:10;14.75;;;9.57;;
32295;SDS011;18781;51.550;5.418;2023-04-06T14:21:39;18.05;;;9.20;;
32295;SDS011;18781;51.550;5.418;2023-04-06T14:24:06;14.10;;;9.10;;
32295;SDS011;18781;51.550;5.418;2023-04-06T14:26:32;15.57;;;9.68;;